createdAt,value
2018-06-15T00:00:24.177Z,15.49
2018-06-15T00:02:56.847Z,15.52
2018-06-15T00:05:23.878Z,15.52
2018-06-15T00:07:50.942Z,15.56
2018-06-15T00:10:18.845Z,15.49
2018-06-15T00:12:45.893Z,15.55
2018-06-15T00:15:12.921Z,15.54
2018-06-15T00:17:39.962Z,15.55
2018-06-15T00:20:07.057Z,15.54
2018-06-15T00:22:34.106Z,15.55
2018-06-15T00:25:01.219Z,15.56
2018-06-15T00:27:28.346Z,15.57
2018-06-15T00:29:55.349Z,15.60
2018-06-15T00:32:22.371Z,15.63
2018-06-15T00:34:49.741Z,15.55
2018-06-15T00:37:16.941Z,15.53
2018-06-15T00:39:43.977Z,15.57
2018-06-15T00:42:11.007Z,15.61
2018-06-15T00:44:38.044Z,15.65
2018-06-15T00:47:05.310Z,15.68
2018-06-15T00:49:32.361Z,15.66
2018-06-15T00:51:59.407Z,15.65
2018-06-15T00:54:26.432Z,15.68
2018-06-15T00:57:05.051Z,15.68
2018-06-15T00:59:32.166Z,15.67
2018-06-15T01:01:59.351Z,15.69
2018-06-15T01:04:26.398Z,15.68
2018-06-15T01:06:53.426Z,15.63
2018-06-15T01:09:20.531Z,15.65
2018-06-15T01:11:47.579Z,15.57
2018-06-15T01:14:14.610Z,15.50
2018-06-15T01:16:42.338Z,15.53
2018-06-15T01:19:09.386Z,15.53
2018-06-15T01:21:36.429Z,15.47
2018-06-15T01:24:03.470Z,15.43
2018-06-15T01:26:30.545Z,15.35
2018-06-15T01:28:57.576Z,15.30
2018-06-15T01:31:24.592Z,15.25
2018-06-15T01:33:51.669Z,15.22
2018-06-15T01:36:18.778Z,15.22
2018-06-15T01:38:45.834Z,15.21
2018-06-15T01:41:12.953Z,15.14
2018-06-15T01:43:40.090Z,15.13
2018-06-15T01:46:07.136Z,15.07
2018-06-15T01:48:34.181Z,15.01
2018-06-15T01:51:01.216Z,14.97
2018-06-15T01:53:28.723Z,15.02
2018-06-15T01:55:55.810Z,15.12
2018-06-15T01:58:23.372Z,15.11
2018-06-15T02:00:50.501Z,15.12
2018-06-15T02:03:17.594Z,15.03
2018-06-15T02:05:44.756Z,14.94
2018-06-15T02:08:11.839Z,14.91
2018-06-15T02:10:38.877Z,14.95
2018-06-15T02:13:05.998Z,14.88
2018-06-15T02:15:33.039Z,14.88
2018-06-15T02:18:00.086Z,14.95
2018-06-15T02:20:27.110Z,14.95
2018-06-15T02:22:54.162Z,14.87
2018-06-15T02:25:21.205Z,14.96
2018-06-15T02:27:48.337Z,14.82
2018-06-15T02:30:15.374Z,14.84
2018-06-15T02:32:42.492Z,14.83
2018-06-15T02:35:09.595Z,14.73
2018-06-15T02:37:36.619Z,14.57
2018-06-15T02:40:03.646Z,14.59
2018-06-15T02:42:30.676Z,14.59
2018-06-15T02:44:57.723Z,14.64
2018-06-15T02:47:24.759Z,14.51
2018-06-15T02:49:51.805Z,14.42
2018-06-15T02:52:18.830Z,14.52
2018-06-15T02:54:45.853Z,14.50
2018-06-15T02:57:14.038Z,14.45
2018-06-15T02:59:41.073Z,14.33
2018-06-15T03:02:08.241Z,14.33
2018-06-15T03:04:35.303Z,14.42
2018-06-15T03:07:02.333Z,14.36
2018-06-15T03:09:31.010Z,14.32
2018-06-15T03:11:58.124Z,14.50
2018-06-15T03:14:25.157Z,14.64
2018-06-15T03:16:52.190Z,14.57
2018-06-15T03:19:19.360Z,14.48
2018-06-15T03:21:46.470Z,14.35
2018-06-15T03:24:13.570Z,14.27
2018-06-15T03:26:40.593Z,14.10
2018-06-15T03:29:07.626Z,14.05
2018-06-15T03:31:34.637Z,13.90
2018-06-15T03:34:01.678Z,13.83
2018-06-15T03:36:28.841Z,13.77
2018-06-15T03:38:55.865Z,13.69
2018-06-15T03:41:22.878Z,13.83
2018-06-15T03:43:49.907Z,13.97
2018-06-15T03:46:16.993Z,13.92
2018-06-15T03:48:44.018Z,14.02
2018-06-15T03:51:11.029Z,14.00
2018-06-15T03:53:38.121Z,14.10
2018-06-15T03:56:05.154Z,14.12
2018-06-15T03:58:32.219Z,13.97
2018-06-15T04:00:59.291Z,14.11
2018-06-15T04:03:26.330Z,14.03
2018-06-15T04:05:53.611Z,14.01
2018-06-15T04:08:20.665Z,14.10
2018-06-15T04:10:47.685Z,14.23
2018-06-15T04:13:14.742Z,14.13
2018-06-15T04:15:41.758Z,14.21
2018-06-15T04:18:08.792Z,14.26
2018-06-15T04:20:37.220Z,14.26
2018-06-15T04:23:04.279Z,14.30
2018-06-15T04:25:31.606Z,14.25
2018-06-15T04:27:58.621Z,14.34
2018-06-15T04:30:25.624Z,14.33
2018-06-15T04:32:52.710Z,14.42
2018-06-15T04:35:19.912Z,14.33
2018-06-15T04:37:47.286Z,14.37
2018-06-15T04:40:14.301Z,14.41
2018-06-15T04:42:41.313Z,14.32
2018-06-15T04:45:08.595Z,14.38
2018-06-15T04:47:35.694Z,14.46
2018-06-15T04:50:02.895Z,14.54
2018-06-15T04:52:29.918Z,14.66
2018-06-15T04:54:56.960Z,14.81
2018-06-15T04:57:23.980Z,14.82
2018-06-15T04:59:50.995Z,14.85
2018-06-15T05:02:18.047Z,14.87
2018-06-15T05:04:45.633Z,14.83
2018-06-15T05:07:12.686Z,14.93
2018-06-15T05:09:39.798Z,14.98
2018-06-15T05:12:06.806Z,14.92
2018-06-15T05:14:33.842Z,14.92
2018-06-15T05:17:00.861Z,14.98
2018-06-15T05:19:27.888Z,15.02
2018-06-15T05:21:54.998Z,15.05
2018-06-15T05:24:22.039Z,15.10
2018-06-15T05:26:49.146Z,15.15
2018-06-15T05:29:16.179Z,15.21
2018-06-15T05:31:43.177Z,15.21
2018-06-15T05:34:10.192Z,15.32
2018-06-15T05:36:37.222Z,15.34
2018-06-15T05:39:08.980Z,15.39
2018-06-15T05:41:36.038Z,15.43
2018-06-15T05:44:03.375Z,15.52
2018-06-15T05:46:30.478Z,15.54
2018-06-15T05:48:57.517Z,15.55
2018-06-15T05:51:24.565Z,15.63
2018-06-15T05:53:51.594Z,15.63
2018-06-15T05:56:25.501Z,15.70
2018-06-15T05:58:52.517Z,15.63
2018-06-15T06:01:19.598Z,15.60
2018-06-15T06:03:46.619Z,15.82
2018-06-15T06:06:13.706Z,15.87
2018-06-15T06:08:40.733Z,15.80
2018-06-15T06:11:07.757Z,15.80
2018-06-15T06:13:34.797Z,15.82
2018-06-15T06:16:01.905Z,15.85
2018-06-15T06:18:29.210Z,15.92
2018-06-15T06:20:56.247Z,16.09
2018-06-15T06:23:23.249Z,16.10
2018-06-15T06:25:50.343Z,16.05
2018-06-15T06:28:17.417Z,16.16
2018-06-15T06:30:44.465Z,16.19
2018-06-15T06:33:11.532Z,16.15
2018-06-15T06:35:38.562Z,16.38
2018-06-15T06:38:05.600Z,16.41
2018-06-15T06:40:32.862Z,16.42
2018-06-15T06:43:00.035Z,16.45
2018-06-15T06:45:27.142Z,16.44
2018-06-15T06:47:54.206Z,16.55
2018-06-15T06:50:21.297Z,16.64
2018-06-15T06:52:48.444Z,16.59
2018-06-15T06:55:15.503Z,16.71
2018-06-15T06:57:42.533Z,16.79
2018-06-15T07:00:09.567Z,16.85
2018-06-15T07:02:36.599Z,16.86
2018-06-15T07:05:03.657Z,16.95
2018-06-15T07:07:30.705Z,17.04
2018-06-15T07:09:57.734Z,17.06
2018-06-15T07:12:24.829Z,17.11
2018-06-15T07:14:53.971Z,17.06
2018-06-15T07:17:21.016Z,17.25
2018-06-15T07:19:48.055Z,17.20
2018-06-15T07:22:15.103Z,17.28
2018-06-15T07:24:42.246Z,17.40
2018-06-15T07:27:09.258Z,17.35
2018-06-15T07:29:36.291Z,17.46
2018-06-15T07:32:03.710Z,17.48
2018-06-15T07:34:30.754Z,17.56
2018-06-15T07:36:57.821Z,17.63
2018-06-15T07:39:24.978Z,17.64
2018-06-15T07:41:52.941Z,17.63
2018-06-15T07:44:21.990Z,17.70
2018-06-15T07:46:49.018Z,17.89
2018-06-15T07:49:16.402Z,17.82
2018-06-15T07:51:43.401Z,17.78
2018-06-15T07:54:10.446Z,17.56
2018-06-15T07:56:38.157Z,17.58
2018-06-15T07:59:06.133Z,17.66
2018-06-15T08:01:33.352Z,17.79
2018-06-15T08:04:03.265Z,17.67
2018-06-15T08:06:30.650Z,17.49
2018-06-15T08:08:58.092Z,17.43
2018-06-15T08:11:25.125Z,17.59
2018-06-15T08:13:52.230Z,17.88
2018-06-15T08:16:19.322Z,18.09
2018-06-15T08:18:46.433Z,18.29
2018-06-15T08:21:13.543Z,18.52
2018-06-15T08:23:40.562Z,18.58
2018-06-15T08:26:07.593Z,18.45
2018-06-15T08:28:34.763Z,18.54
2018-06-15T08:31:01.804Z,18.74
2018-06-15T08:33:28.922Z,18.79
2018-06-15T08:35:55.968Z,19.09
2018-06-15T08:38:23.093Z,19.11
2018-06-15T08:40:50.229Z,19.03
2018-06-15T08:43:17.373Z,19.02
2018-06-15T08:45:44.413Z,18.95
2018-06-15T08:48:12.522Z,19.11
2018-06-15T08:50:39.854Z,19.21
2018-06-15T08:53:06.944Z,19.41
2018-06-15T08:55:34.067Z,19.53
2018-06-15T08:58:01.083Z,19.63
2018-06-15T09:00:28.179Z,19.66
2018-06-15T09:02:55.261Z,19.81
2018-06-15T09:05:22.533Z,19.75
2018-06-15T09:07:49.680Z,19.47
2018-06-15T09:10:16.775Z,19.10
2018-06-15T09:12:43.994Z,19.03
2018-06-15T09:15:10.986Z,19.09
2018-06-15T09:17:37.981Z,19.00
2018-06-15T09:20:05.100Z,18.97
2018-06-15T09:22:32.214Z,19.11
2018-06-15T09:24:59.389Z,19.37
2018-06-15T09:27:26.391Z,19.42
2018-06-15T09:29:53.754Z,19.63
2018-06-15T09:32:20.786Z,19.42
2018-06-15T09:34:47.809Z,19.74
2018-06-15T09:37:14.910Z,20.01
2018-06-15T09:39:41.953Z,20.08
2018-06-15T09:42:09.586Z,19.71
2018-06-15T09:44:36.709Z,19.72
2018-06-15T09:47:03.802Z,19.56
2018-06-15T09:49:30.811Z,19.44
2018-06-15T09:51:57.969Z,19.34
2018-06-15T09:54:25.005Z,19.41
2018-06-15T09:56:52.021Z,19.81
2018-06-15T09:59:19.994Z,20.00
2018-06-15T10:01:47.097Z,20.24
2018-06-15T10:04:14.110Z,20.28
2018-06-15T10:06:41.106Z,20.24
2018-06-15T10:09:08.148Z,20.39
2018-06-15T10:11:35.221Z,20.52
2018-06-15T10:14:03.599Z,20.50
2018-06-15T10:16:31.408Z,20.36
2018-06-15T10:18:59.513Z,20.54
2018-06-15T10:21:27.743Z,20.63
2018-06-15T10:23:56.081Z,20.78
2018-06-15T10:26:23.953Z,20.82
2018-06-15T10:28:52.071Z,20.79
2018-06-15T10:31:20.321Z,21.21
2018-06-15T10:33:48.764Z,21.34
2018-06-15T10:36:16.942Z,21.17
2018-06-15T10:38:45.100Z,20.99
2018-06-15T10:41:13.573Z,21.26
2018-06-15T10:43:40.677Z,21.44
2018-06-15T10:46:07.885Z,21.05
2018-06-15T10:48:34.906Z,21.00
2018-06-15T10:51:02.050Z,20.86
2018-06-15T10:53:29.054Z,20.73
2018-06-15T10:55:56.357Z,21.10
2018-06-15T10:58:23.356Z,21.29
2018-06-15T11:00:50.384Z,20.72
2018-06-15T11:03:17.509Z,20.58
2018-06-15T11:05:44.547Z,20.65
2018-06-15T11:08:11.718Z,20.98
2018-06-15T11:10:38.756Z,21.42
2018-06-15T11:13:05.768Z,21.66
2018-06-15T11:15:32.853Z,21.84
2018-06-15T11:17:59.867Z,21.84
2018-06-15T11:20:26.944Z,21.75
2018-06-15T11:22:54.186Z,21.83
2018-06-15T11:25:22.492Z,21.94
2018-06-15T11:27:49.528Z,22.21
2018-06-15T11:30:16.758Z,21.93
2018-06-15T11:32:43.757Z,21.68
2018-06-15T11:35:10.822Z,21.82
2018-06-15T11:37:37.853Z,21.81
2018-06-15T11:40:04.881Z,22.00
2018-06-15T11:42:31.882Z,22.21
2018-06-15T11:44:59.164Z,22.23
2018-06-15T11:47:26.185Z,22.43
2018-06-15T11:49:53.245Z,22.01
2018-06-15T11:52:20.420Z,21.80
2018-06-15T11:54:47.449Z,21.91
2018-06-15T11:57:14.489Z,21.78
2018-06-15T11:59:41.842Z,21.91
2018-06-15T12:02:08.899Z,21.95
2018-06-15T12:04:35.906Z,22.16
2018-06-15T12:07:02.953Z,22.34
2018-06-15T12:09:29.997Z,22.36
2018-06-15T12:11:57.013Z,22.75
2018-06-15T12:14:24.302Z,23.12
2018-06-15T12:16:51.837Z,23.17
2018-06-15T12:19:19.254Z,23.05
2018-06-15T12:21:46.934Z,23.45
2018-06-15T12:24:14.652Z,23.39
2018-06-15T12:26:41.759Z,23.79
2018-06-15T12:29:08.777Z,23.86
2018-06-15T12:31:35.897Z,23.60
2018-06-15T12:34:03.001Z,23.33
2018-06-15T12:36:30.099Z,23.64
2018-06-15T12:38:57.324Z,23.83
2018-06-15T12:41:24.413Z,24.60
2018-06-15T12:43:51.497Z,23.82
2018-06-15T12:46:18.601Z,24.12
2018-06-15T12:48:45.599Z,24.60
2018-06-15T12:51:12.641Z,24.63
2018-06-15T12:53:39.620Z,24.79
2018-06-15T12:56:06.651Z,25.15
2018-06-15T12:58:33.661Z,24.74
2018-06-15T13:01:00.781Z,24.31
2018-06-15T13:03:27.896Z,24.46
2018-06-15T13:05:55.029Z,24.74
2018-06-15T13:08:22.033Z,25.33
2018-06-15T13:10:49.105Z,24.71
2018-06-15T13:13:16.242Z,24.49
2018-06-15T13:15:43.313Z,24.32
2018-06-15T13:18:10.339Z,24.42
2018-06-15T13:20:37.495Z,25.06
2018-06-15T13:23:04.809Z,24.18
2018-06-15T13:25:32.882Z,23.36
2018-06-15T13:27:59.918Z,23.63
2018-06-15T13:30:27.026Z,24.30
2018-06-15T13:32:54.453Z,24.70
2018-06-15T13:35:21.684Z,24.75
2018-06-15T13:37:48.807Z,24.27
2018-06-15T13:40:15.929Z,24.49
2018-06-15T13:42:44.504Z,24.25
2018-06-15T13:45:11.795Z,24.23
2018-06-15T13:47:38.793Z,24.70
2018-06-15T13:50:06.196Z,25.32
2018-06-15T13:52:33.213Z,25.14
2018-06-15T13:55:00.241Z,25.00
2018-06-15T13:57:27.360Z,25.27
2018-06-15T13:59:54.833Z,25.08
2018-06-15T14:02:22.374Z,25.27
2018-06-15T14:04:49.573Z,25.04
2018-06-15T14:07:16.654Z,25.08
2018-06-15T14:09:43.678Z,24.97
2018-06-15T14:12:10.870Z,25.35
2018-06-15T14:14:45.470Z,25.13
2018-06-15T14:17:12.579Z,24.84
2018-06-15T14:19:39.594Z,24.35
2018-06-15T14:22:06.651Z,24.44
2018-06-15T14:24:34.117Z,25.04
2018-06-15T14:27:01.156Z,25.09
2018-06-15T14:29:28.313Z,25.16
2018-06-15T14:31:55.414Z,25.63
2018-06-15T14:34:22.485Z,25.42
2018-06-15T14:36:51.369Z,25.59
2018-06-15T14:39:18.453Z,25.26
2018-06-15T14:41:46.085Z,25.46
2018-06-15T14:44:13.081Z,25.28
2018-06-15T14:46:40.173Z,25.04
2018-06-15T14:49:07.194Z,25.49
2018-06-15T14:51:34.201Z,24.38
2018-06-15T14:54:01.274Z,23.81
2018-06-15T14:56:28.444Z,23.88
2018-06-15T14:58:55.480Z,23.54
2018-06-15T15:01:22.659Z,23.60
2018-06-15T15:03:49.738Z,23.54
2018-06-15T15:06:16.748Z,23.10
2018-06-15T15:08:43.992Z,23.17
2018-06-15T15:11:11.051Z,23.12
2018-06-15T15:13:38.158Z,23.35
2018-06-15T15:16:05.189Z,23.53
2018-06-15T15:18:32.208Z,23.43
2018-06-15T15:21:00.271Z,23.28
2018-06-15T15:23:27.318Z,22.87
2018-06-15T15:25:54.321Z,22.89
2018-06-15T15:28:21.327Z,23.14
2018-06-15T15:30:48.350Z,22.94
2018-06-15T15:33:15.362Z,22.88
2018-06-15T15:35:42.532Z,22.62
2018-06-15T15:38:09.567Z,22.77
2018-06-15T15:40:36.569Z,22.81
2018-06-15T15:43:03.669Z,22.90
2018-06-15T15:45:30.665Z,23.22
2018-06-15T15:47:57.769Z,23.91
2018-06-15T15:50:25.390Z,23.87
2018-06-15T15:52:52.381Z,24.35
2018-06-15T15:55:19.401Z,24.40
2018-06-15T15:57:46.487Z,23.94
2018-06-15T16:00:13.469Z,23.93
2018-06-15T16:02:40.599Z,23.79
2018-06-15T16:05:07.654Z,23.34
2018-06-15T16:07:35.070Z,22.97
2018-06-15T16:10:02.162Z,22.84
2018-06-15T16:12:29.202Z,23.18
2018-06-15T16:14:56.222Z,23.48
2018-06-15T16:17:23.270Z,23.57
2018-06-15T16:19:50.469Z,23.32
2018-06-15T16:22:17.553Z,23.49
2018-06-15T16:24:44.892Z,23.33
2018-06-15T16:27:12.029Z,23.16
2018-06-15T16:29:39.214Z,23.08
2018-06-15T16:32:06.306Z,23.45
2018-06-15T16:34:33.403Z,23.90
2018-06-15T16:37:00.577Z,23.51
2018-06-15T16:39:27.615Z,23.31
2018-06-15T16:41:54.694Z,23.64
2018-06-15T16:44:21.718Z,23.46
2018-06-15T16:46:49.021Z,23.26
2018-06-15T16:49:16.027Z,23.16
2018-06-15T16:51:43.022Z,23.19
2018-06-15T16:54:10.070Z,22.94
2018-06-15T16:56:37.157Z,22.91
2018-06-15T16:59:04.169Z,23.08
2018-06-15T17:01:31.413Z,23.09
2018-06-15T17:03:58.426Z,22.86
2018-06-15T17:06:25.514Z,22.96
2018-06-15T17:08:52.825Z,22.72
2018-06-15T17:11:19.836Z,22.74
2018-06-15T17:13:46.837Z,22.93
2018-06-15T17:16:13.976Z,22.74
2018-06-15T17:18:40.905Z,22.60
2018-06-15T17:21:07.917Z,22.44
2018-06-15T17:23:35.105Z,22.28
2018-06-15T17:26:02.213Z,22.30
2018-06-15T17:28:29.230Z,22.22
2018-06-15T17:30:56.277Z,22.32
2018-06-15T17:33:23.290Z,22.29
2018-06-15T17:35:50.293Z,22.25
2018-06-15T17:38:17.484Z,22.01
2018-06-15T17:40:44.498Z,21.91
2018-06-15T17:43:11.501Z,22.00
2018-06-15T17:45:38.533Z,21.87
2018-06-15T17:48:05.603Z,21.67
2018-06-15T17:50:32.674Z,21.55
2018-06-15T17:52:59.797Z,21.52
2018-06-15T17:55:26.811Z,21.61
2018-06-15T17:57:53.877Z,21.55
2018-06-15T18:00:20.977Z,21.50
2018-06-15T18:02:48.006Z,21.50
2018-06-15T18:05:15.033Z,21.45
2018-06-15T18:07:45.665Z,21.51
2018-06-15T18:10:12.671Z,21.55
2018-06-15T18:12:39.676Z,21.56
2018-06-15T18:15:06.730Z,21.55
2018-06-15T18:17:34.052Z,21.61
2018-06-15T18:20:01.029Z,21.58
2018-06-15T18:22:28.029Z,21.50
2018-06-15T18:24:55.146Z,21.48
2018-06-15T18:27:22.156Z,21.42
2018-06-15T18:29:49.182Z,21.42
2018-06-15T18:32:16.288Z,21.39
2018-06-15T18:34:43.316Z,21.36
2018-06-15T18:37:10.420Z,21.24
2018-06-15T18:39:37.469Z,21.20
2018-06-15T18:42:04.646Z,21.26
2018-06-15T18:44:31.652Z,21.20
2018-06-15T18:46:58.657Z,21.21
2018-06-15T18:49:25.705Z,21.20
2018-06-15T18:51:52.798Z,21.05
2018-06-15T18:54:19.945Z,21.04
2018-06-15T18:56:47.058Z,21.03
2018-06-15T18:59:14.421Z,21.00
2018-06-15T19:01:41.597Z,20.89
2018-06-15T19:04:08.605Z,20.90
2018-06-15T19:06:35.707Z,20.83
2018-06-15T19:09:03.906Z,20.73
2018-06-15T19:11:30.911Z,20.66
2018-06-15T19:13:58.046Z,20.59
2018-06-15T19:16:25.082Z,20.47
2018-06-15T19:18:52.174Z,20.43
2018-06-15T19:21:19.241Z,20.32
2018-06-15T19:23:46.434Z,20.33
2018-06-15T19:26:13.442Z,20.25
2018-06-15T19:28:40.538Z,20.22
2018-06-15T19:31:07.775Z,20.11
2018-06-15T19:33:34.850Z,20.03
2018-06-15T19:36:01.920Z,19.97
2018-06-15T19:38:29.026Z,19.97
2018-06-15T19:40:56.136Z,19.89
2018-06-15T19:43:23.153Z,19.71
2018-06-15T19:45:50.274Z,19.67
2018-06-15T19:48:17.371Z,19.70
2018-06-15T19:50:44.442Z,19.50
2018-06-15T19:53:11.541Z,19.47
2018-06-15T19:55:38.574Z,19.47
2018-06-15T19:58:05.689Z,19.33
2018-06-15T20:00:32.793Z,19.20
2018-06-15T20:03:00.001Z,19.17
2018-06-15T20:05:27.088Z,19.12
2018-06-15T20:07:54.279Z,19.03
2018-06-15T20:10:21.393Z,19.00
2018-06-15T20:12:48.484Z,18.87
2018-06-15T20:15:15.572Z,18.80
2018-06-15T20:17:42.616Z,18.78
2018-06-15T20:20:09.708Z,18.84
2018-06-15T20:22:36.902Z,18.79
2018-06-15T20:25:03.954Z,18.70
2018-06-15T20:27:31.045Z,18.58
2018-06-15T20:29:58.072Z,18.54
2018-06-15T20:32:25.177Z,18.56
2018-06-15T20:34:52.176Z,18.58
2018-06-15T20:37:19.403Z,18.63
2018-06-15T20:39:46.410Z,18.56
2018-06-15T20:42:13.617Z,18.54
2018-06-15T20:44:40.650Z,18.50
2018-06-15T20:47:07.683Z,18.30
2018-06-15T20:49:34.681Z,18.25
2018-06-15T20:52:08.733Z,18.25
2018-06-15T20:54:35.754Z,18.17
2018-06-15T20:57:02.776Z,18.02
2018-06-15T20:59:29.873Z,18.08
2018-06-15T21:01:56.965Z,18.09
2018-06-15T21:04:23.982Z,18.02
2018-06-15T21:06:51.040Z,17.97
2018-06-15T21:09:18.138Z,17.89
2018-06-15T21:11:45.461Z,17.79
2018-06-15T21:14:12.561Z,17.73
2018-06-15T21:16:39.593Z,17.70
2018-06-15T21:19:06.773Z,17.66
2018-06-15T21:21:33.838Z,17.50
2018-06-15T21:24:00.892Z,17.49
2018-06-15T21:26:27.897Z,17.44
2018-06-15T21:28:55.201Z,17.47
2018-06-15T21:31:22.284Z,17.36
2018-06-15T21:33:49.329Z,17.30
2018-06-15T21:36:16.328Z,17.26
2018-06-15T21:38:43.325Z,17.32
2018-06-15T21:41:10.693Z,17.24
2018-06-15T21:43:37.780Z,17.34
2018-06-15T21:46:04.830Z,16.94
2018-06-15T21:48:31.860Z,17.37
2018-06-15T21:50:58.958Z,17.30
2018-06-15T21:53:26.091Z,17.28
2018-06-15T21:55:53.173Z,17.34
2018-06-15T21:58:20.341Z,17.30
2018-06-15T22:00:47.561Z,17.34
2018-06-15T22:03:14.604Z,17.39
2018-06-15T22:05:41.601Z,17.45
2018-06-15T22:08:08.789Z,17.37
2018-06-15T22:10:35.806Z,17.31
2018-06-15T22:13:02.890Z,17.19
2018-06-15T22:15:29.917Z,17.19
2018-06-15T22:17:56.941Z,17.26
2018-06-15T22:20:24.059Z,17.28
2018-06-15T22:22:51.606Z,17.23
2018-06-15T22:25:18.694Z,17.25
2018-06-15T22:27:45.713Z,17.22
2018-06-15T22:30:12.729Z,17.28
2018-06-15T22:32:39.743Z,17.38
2018-06-15T22:35:06.855Z,17.34
2018-06-15T22:37:33.869Z,17.30
2018-06-15T22:40:00.966Z,17.27
2018-06-15T22:42:28.021Z,17.25
2018-06-15T22:44:55.030Z,17.26
2018-06-15T22:47:22.125Z,17.13
2018-06-15T22:49:49.224Z,17.11
2018-06-15T22:52:16.329Z,17.11
2018-06-15T22:54:43.330Z,17.12
2018-06-15T22:57:10.332Z,17.19
2018-06-15T22:59:37.457Z,17.23
2018-06-15T23:02:04.502Z,17.15
2018-06-15T23:04:31.506Z,17.14
2018-06-15T23:06:58.541Z,17.14
2018-06-15T23:09:25.692Z,17.24
2018-06-15T23:11:52.796Z,17.14
2018-06-15T23:14:19.820Z,17.06
2018-06-15T23:16:46.819Z,17.18
2018-06-15T23:19:13.838Z,17.23
2018-06-15T23:21:40.852Z,17.11
2018-06-15T23:24:07.981Z,17.23
2018-06-15T23:26:35.076Z,17.10
2018-06-15T23:29:02.172Z,17.20
2018-06-15T23:31:29.214Z,17.08
2018-06-15T23:33:56.220Z,17.13
2018-06-15T23:36:23.330Z,17.12
2018-06-15T23:38:50.590Z,17.10
2018-06-15T23:41:17.613Z,17.20
2018-06-15T23:43:44.634Z,17.14
2018-06-15T23:46:12.043Z,17.23
2018-06-15T23:48:39.175Z,17.18
2018-06-15T23:51:06.186Z,17.24
2018-06-15T23:53:33.394Z,17.16
2018-06-15T23:56:00.433Z,17.08
2018-06-15T23:58:27.566Z,16.99
